FAHS/HDS METAR and TAF weather

Enter ICAO airport designator
Station Type Date Time Source
FAHS METAR 2021/04/14 19:00 UTC NOAA

FAHS 141900Z AUTO 14005KT //// // ////// 23/17 Q1020


Station Type Date Time Source
FAHS Decoded METAR 2021/04/14 19:00 UTC NOAA

Hoedspruit, South Africa (FAHS) 24-22S 031-02E 500M
Apr 14, 2021 - 03:00 PM EDT / 2021.04.14 1900 UTC
Wind: from the SE (140 degrees) at 6 MPH (5 KT):0
Temperature: 73 F (23 C)
Dew Point: 62 F (17 C)
Relative Humidity: 68%
Pressure (altimeter): 30.12 in. Hg (1020 hPa)
ob: FAHS 141900Z AUTO 14005KT //// // ////// 23/17 Q1020
cycle: 19

Station Type Date Time Source
FAHS TAF 2017/05/23 04:01 UTC NOAA

TAF FAHS 230300Z 2304/2315 VRB02KT CAVOK TX29/2312ZTN12/2304Z

Example: see airport list